Time,TemperatureF,DewpointF,PressureIn,WindDirection,WindDirectionDegrees,WindSpeedMPH,WindSpeedGustMPH,Humidity,HourlyPrecipIn,Conditions,Clouds,dailyrainin,SoftwareType,DateUTC
2013-03-01 04:00:00,43.0,37.0,30.52,North,-999,-999.0,-999.0,79,-99.99,,,-99.99,,2013-03-01 04:00:00,
2013-03-01 04:41:00,43.0,37.0,30.52,North,-999,-999.0,-999.0,79,-99.99,,,-99.99,,2013-03-01 04:41:00,
2013-03-01 04:51:00,43.0,37.0,30.52,North,-999,-999.0,-999.0,79,-99.99,,,-99.99,,2013-03-01 04:51:00,
2013-03-01 05:00:00,43.0,36.0,30.52,North,-999,-999.0,-999.0,78,-99.99,,,-99.99,,2013-03-01 05:00:00,
2013-03-01 05:32:00,43.0,36.0,30.52,North,-999,-999.0,-999.0,78,-99.99,,,-99.99,,2013-03-01 05:32:00,
2013-03-01 05:41:00,43.0,36.0,30.52,North,-999,-999.0,-999.0,78,-99.99,,,-99.99,,2013-03-01 05:41:00,
2013-03-01 05:52:00,43.0,36.0,30.52,North,-999,-999.0,-999.0,78,-99.99,,,-99.99,,2013-03-01 05:52:00,
2013-03-01 08:00:00,42.0,37.0,30.53,North,-999,-999.0,-999.0,82,-99.99,,,-99.99,,2013-03-01 08:00:00,
2013-03-01 08:31:00,42.0,37.0,30.53,North,-999,-999.0,-999.0,82,-99.99,,,-99.99,,2013-03-01 08:31:00,
2013-03-01 08:42:00,42.0,37.0,30.53,North,-999,-999.0,-999.0,82,-99.99,,,-99.99,,2013-03-01 08:42:00,
2013-03-01 08:52:00,42.0,37.0,30.53,North,-999,-999.0,-999.0,82,-99.99,,,-99.99,,2013-03-01 08:52:00,
2013-03-01 09:00:00,42.0,37.0,30.55,North,-999,-999.0,-999.0,82,-99.99,,,-99.99,,2013-03-01 09:00:00,
2013-03-01 09:41:00,42.0,37.0,30.55,North,-999,-999.0,-999.0,82,-99.99,,,-99.99,,2013-03-01 09:41:00,
2013-03-01 09:51:00,42.0,37.0,30.55,North,-999,-999.0,-999.0,82,-99.99,,,-99.99,,2013-03-01 09:51:00,
2013-03-01 10:00:00,43.0,36.0,30.55,North,-999,-999.0,-999.0,76,-99.99,,,-99.99,,2013-03-01 10:00:00,
2013-03-01 10:31:00,43.0,36.0,30.55,North,-999,-999.0,-999.0,76,-99.99,,,-99.99,,2013-03-01 10:31:00,
2013-03-01 10:41:00,43.0,36.0,30.55,North,-999,-999.0,-999.0,76,-99.99,,,-99.99,,2013-03-01 10:41:00,
2013-03-01 10:51:00,43.0,36.0,30.55,North,-999,-999.0,-999.0,76,-99.99,,,-99.99,,2013-03-01 10:51:00,
2013-03-01 13:00:00,43.0,-99.9,30.53,North,-999,-999.0,-999.0,-999,-99.99,,,-99.99,,2013-03-01 13:00:00,
2013-03-01 13:42:00,43.0,-99.9,30.53,North,-999,-999.0,-999.0,-999,-99.99,,,-99.99,,2013-03-01 13:42:00,
2013-03-01 13:52:00,43.0,-99.9,30.53,North,-999,-999.0,-999.0,-999,-99.99,,,-99.99,,2013-03-01 13:52:00,
2013-03-01 14:00:00,44.0,-99.9,30.51,North,-999,-999.0,-999.0,-999,-99.99,,,-99.99,,2013-03-01 14:00:00,
2013-03-01 14:42:00,44.0,-99.9,30.51,North,-999,-999.0,-999.0,-999,-99.99,,,-99.99,,2013-03-01 14:42:00,
2013-03-01 14:52:00,44.0,-99.9,30.51,North,-999,-999.0,-999.0,-999,-99.99,,,-99.99,,2013-03-01 14:52:00,
2013-03-01 15:00:00,44.0,-99.9,30.50,North,-999,-999.0,-999.0,-999,-99.99,,,-99.99,,2013-03-01 15:00:00,
2013-03-01 15:42:00,44.0,-99.9,30.50,North,-999,-999.0,-999.0,-999,-99.99,,,-99.99,,2013-03-01 15:42:00,
2013-03-01 15:52:00,44.0,-99.9,30.50,North,-999,-999.0,-999.0,-999,-99.99,,,-99.99,,2013-03-01 15:52:00,
2013-03-01 18:00:00,45.0,-99.9,30.46,North,-999,-999.0,-999.0,-999,-99.99,,,-99.99,,2013-03-01 18:00:00,
2013-03-01 18:42:00,45.0,-99.9,30.46,North,-999,-999.0,-999.0,-999,-99.99,,,-99.99,,2013-03-01 18:42:00,
2013-03-01 18:53:00,45.0,-99.9,30.46,North,-999,-999.0,-999.0,-999,-99.99,,,-99.99,,2013-03-01 18:53:00,
2013-03-01 19:00:00,44.0,-99.9,30.46,North,-999,-999.0,-999.0,-999,-99.99,,,-99.99,,2013-03-01 19:00:00,
2013-03-01 19:42:00,44.0,-99.9,30.46,North,-999,-999.0,-999.0,-999,-99.99,,,-99.99,,2013-03-01 19:42:00,
2013-03-01 19:52:00,44.0,-99.9,30.46,North,-999,-999.0,-999.0,-999,-99.99,,,-99.99,,2013-03-01 19:52:00,
2013-03-01 21:00:00,40.0,35.0,30.45,North,-999,-999.0,-999.0,82,-99.99,,,-99.99,,2013-03-01 21:00:00,
2013-03-01 21:41:00,40.0,35.0,30.45,North,-999,-999.0,-999.0,82,-99.99,,,-99.99,,2013-03-01 21:41:00,
2013-03-01 21:51:00,40.0,35.0,30.45,North,-999,-999.0,-999.0,82,-99.99,,,-99.99,,2013-03-01 21:51:00,
2013-03-01 22:00:00,40.0,34.0,30.45,North,-999,-999.0,-999.0,79,-99.99,,,-99.99,,2013-03-01 22:00:00,
2013-03-01 22:41:00,40.0,34.0,30.45,North,-999,-999.0,-999.0,79,-99.99,,,-99.99,,2013-03-01 22:41:00,
2013-03-01 22:51:00,40.0,34.0,30.45,North,-999,-999.0,-999.0,79,-99.99,,,-99.99,,2013-03-01 22:51:00,
2013-03-01 23:00:00,40.0,-99.9,30.44,North,-999,-999.0,-999.0,-999,-99.99,,,-99.99,,2013-03-01 23:00:00,
2013-03-01 23:42:00,40.0,-99.9,30.44,North,-999,-999.0,-999.0,-999,-99.99,,,-99.99,,2013-03-01 23:42:00,
2013-03-01 23:52:00,40.0,-99.9,30.44,North,-999,-999.0,-999.0,-999,-99.99,,,-99.99,,2013-03-01 23:52:00,